Time,TemperatureF,DewpointF,PressureIn,WindDirection,WindDirectionDegrees,WindSpeedMPH,WindSpeedGustMPH,Humidity,HourlyPrecipIn,Conditions,Clouds,dailyrainin,SoftwareType,DateUTC
2013-01-15 00:03:00,13.0,2.0,30.24,West,260,13.0,19.0,61,-99.99,,,-99.99,,2013-01-15 05:03:00,
2013-01-15 00:12:00,13.0,2.0,30.24,West,260,13.0,19.0,61,-99.99,,,-99.99,,2013-01-15 05:12:00,
2013-01-15 00:22:00,12.0,2.0,30.24,West,260,6.0,11.0,61,-99.99,,,-99.99,,2013-01-15 05:22:00,
2013-01-15 00:33:00,12.0,1.0,30.25,West,270,8.0,11.0,61,-99.99,,,-99.99,,2013-01-15 05:33:00,
2013-01-15 00:42:00,12.0,1.0,30.25,West,270,8.0,11.0,61,-99.99,,,-99.99,,2013-01-15 05:42:00,
2013-01-15 00:52:00,12.0,1.0,30.25,WSW,250,4.0,11.0,62,-99.99,,,-99.99,,2013-01-15 05:52:00,
2013-01-15 01:02:00,11.0,1.0,30.25,SW,225,7.0,9.0,63,-99.99,,,-99.99,,2013-01-15 06:02:00,
2013-01-15 01:12:00,11.0,1.0,30.25,SW,225,7.0,9.0,63,-99.99,,,-99.99,,2013-01-15 06:12:00,
2013-01-15 01:22:00,11.0,0.0,30.26,WSW,255,7.0,12.0,60,-99.99,,,-99.99,,2013-01-15 06:22:00,
2013-01-15 01:33:00,11.0,-1.0,30.25,WSW,245,4.0,13.0,59,-99.99,,,-99.99,,2013-01-15 06:33:00,
2013-01-15 01:42:00,11.0,-1.0,30.25,WSW,245,4.0,13.0,59,-99.99,,,-99.99,,2013-01-15 06:42:00,
2013-01-15 01:52:00,11.0,-1.0,30.25,WSW,240,2.0,7.0,60,-99.99,,,-99.99,,2013-01-15 06:52:00,
2013-01-15 02:02:00,11.0,-1.0,30.26,WSW,255,1.0,11.0,59,-99.99,,,-99.99,,2013-01-15 07:02:00,
2013-01-15 02:12:00,11.0,-1.0,30.26,WSW,255,1.0,11.0,59,-99.99,,,-99.99,,2013-01-15 07:12:00,
2013-01-15 02:22:00,10.0,-1.0,30.27,WSW,250,3.0,7.0,61,-99.99,,,-99.99,,2013-01-15 07:22:00,
2013-01-15 02:33:00,10.0,-1.0,30.26,SW,230,5.0,10.0,61,-99.99,,,-99.99,,2013-01-15 07:33:00,
2013-01-15 02:42:00,10.0,-1.0,30.26,SW,230,5.0,10.0,61,-99.99,,,-99.99,,2013-01-15 07:42:00,
2013-01-15 02:52:00,10.0,-1.0,30.26,WSW,240,6.0,12.0,60,-99.99,,,-99.99,,2013-01-15 07:52:00,
2013-01-15 03:02:00,10.0,-1.0,30.26,WSW,250,6.0,14.0,61,-99.99,,,-99.99,,2013-01-15 08:02:00,
2013-01-15 03:12:00,10.0,-1.0,30.26,WSW,250,6.0,14.0,61,-99.99,,,-99.99,,2013-01-15 08:12:00,
2013-01-15 03:22:00,10.0,-1.0,30.27,WSW,255,10.0,17.0,61,-99.99,,,-99.99,,2013-01-15 08:22:00,
2013-01-15 03:33:00,10.0,-1.0,30.27,WSW,245,8.0,16.0,61,-99.99,,,-99.99,,2013-01-15 08:33:00,
2013-01-15 03:42:00,10.0,-1.0,30.27,WSW,245,8.0,16.0,61,-99.99,,,-99.99,,2013-01-15 08:42:00,
2013-01-15 03:52:00,10.0,-1.0,30.27,WSW,250,5.0,14.0,62,-99.99,,,-99.99,,2013-01-15 08:52:00,
2013-01-15 04:02:00,10.0,0.0,30.28,SSW,205,4.0,11.0,63,-99.99,,,-99.99,,2013-01-15 09:02:00,
2013-01-15 04:12:00,10.0,0.0,30.28,SSW,205,4.0,11.0,63,-99.99,,,-99.99,,2013-01-15 09:12:00,
2013-01-15 04:22:00,9.0,-1.0,30.28,SW,225,4.0,11.0,64,-99.99,,,-99.99,,2013-01-15 09:22:00,
2013-01-15 04:33:00,9.0,-1.0,30.28,SW,225,4.0,11.0,64,-99.99,,,-99.99,,2013-01-15 09:33:00,
2013-01-15 11:03:00,13.0,1.0,30.19,South,185,8.0,21.0,58,-99.99,,,-99.99,,2013-01-15 16:03:00,
2013-01-15 11:12:00,13.0,1.0,30.19,South,185,8.0,21.0,58,-99.99,,,-99.99,,2013-01-15 16:12:00,
2013-01-15 11:22:00,14.0,1.0,30.18,South,180,10.0,19.0,55,-99.99,,,-99.99,,2013-01-15 16:22:00,
2013-01-15 11:33:00,15.0,1.0,30.17,South,190,6.0,14.0,54,-99.99,,,-99.99,,2013-01-15 16:33:00,
2013-01-15 11:42:00,15.0,1.0,30.17,South,190,6.0,14.0,54,-99.99,,,-99.99,,2013-01-15 16:42:00,
2013-01-15 11:53:00,16.0,2.0,30.17,SSW,195,7.0,21.0,53,-99.99,,,-99.99,,2013-01-15 16:53:00,
2013-01-15 12:03:00,16.0,2.0,30.17,SSW,195,7.0,21.0,53,-99.99,,,-99.99,,2013-01-15 17:03:00,
2013-01-15 12:22:00,18.0,5.0,30.16,SSW,200,9.0,23.0,54,-99.99,,,-99.99,,2013-01-15 17:22:00,
2013-01-15 12:33:00,20.0,6.0,30.16,SSW,195,8.0,19.0,54,-99.99,,,-99.99,,2013-01-15 17:33:00,
2013-01-15 12:42:00,20.0,6.0,30.16,SSW,195,8.0,19.0,54,-99.99,,,-99.99,,2013-01-15 17:42:00,
2013-01-15 12:53:00,20.0,7.0,30.15,South,175,9.0,21.0,55,-99.99,,,-99.99,,2013-01-15 17:53:00,
2013-01-15 13:03:00,20.0,7.0,30.15,South,175,9.0,21.0,55,-99.99,,,-99.99,,2013-01-15 18:03:00,
2013-01-15 13:23:00,23.0,9.0,30.13,WSW,240,8.0,19.0,54,-99.99,,,-99.99,,2013-01-15 18:23:00,
2013-01-15 13:33:00,24.0,9.0,30.12,South,185,11.0,23.0,53,-99.99,,,-99.99,,2013-01-15 18:33:00,
2013-01-15 13:43:00,24.0,9.0,30.12,South,185,11.0,23.0,53,-99.99,,,-99.99,,2013-01-15 18:43:00,
2013-01-15 13:53:00,24.0,9.0,30.12,SSW,200,10.0,21.0,53,-99.99,,,-99.99,,2013-01-15 18:53:00,
2013-01-15 14:03:00,25.0,9.0,30.10,SSW,205,11.0,20.0,51,-99.99,,,-99.99,,2013-01-15 19:03:00,
2013-01-15 14:12:00,25.0,9.0,30.10,SSW,205,11.0,20.0,51,-99.99,,,-99.99,,2013-01-15 19:12:00,
2013-01-15 14:23:00,26.0,10.0,30.10,SW,215,9.0,21.0,51,-99.99,,,-99.99,,2013-01-15 19:23:00,
2013-01-15 14:33:00,26.0,10.0,30.09,SSW,200,8.0,20.0,50,-99.99,,,-99.99,,2013-01-15 19:33:00,
2013-01-15 14:42:00,26.0,10.0,30.09,SSW,200,8.0,20.0,50,-99.99,,,-99.99,,2013-01-15 19:42:00,
2013-01-15 14:53:00,27.0,10.0,30.08,SW,225,10.0,23.0,48,-99.99,,,-99.99,,2013-01-15 19:53:00,
2013-01-15 15:03:00,27.0,10.0,30.08,SW,225,10.0,23.0,48,-99.99,,,-99.99,,2013-01-15 20:03:00,
2013-01-15 15:23:00,27.0,9.0,30.08,WSW,245,8.0,26.0,45,-99.99,,,-99.99,,2013-01-15 20:23:00,
2013-01-15 15:33:00,27.0,7.0,30.08,WSW,250,9.0,22.0,42,-99.99,,,-99.99,,2013-01-15 20:33:00,
2013-01-15 15:43:00,27.0,7.0,30.08,WSW,250,9.0,22.0,42,-99.99,,,-99.99,,2013-01-15 20:43:00,
2013-01-15 15:52:00,27.0,7.0,30.08,SW,215,13.0,23.0,43,-99.99,,,-99.99,,2013-01-15 20:52:00,
2013-01-15 16:03:00,27.0,7.0,30.08,WSW,240,8.0,28.0,42,-99.99,,,-99.99,,2013-01-15 21:03:00,
2013-01-15 16:13:00,27.0,7.0,30.08,WSW,240,8.0,28.0,42,-99.99,,,-99.99,,2013-01-15 21:13:00,
2013-01-15 16:23:00,27.0,7.0,30.08,SW,230,13.0,22.0,42,-99.99,,,-99.99,,2013-01-15 21:23:00,
2013-01-15 16:33:00,28.0,8.0,30.07,SW,235,8.0,21.0,43,-99.99,,,-99.99,,2013-01-15 21:33:00,
2013-01-15 16:43:00,28.0,8.0,30.07,SW,235,8.0,21.0,43,-99.99,,,-99.99,,2013-01-15 21:43:00,
2013-01-15 16:52:00,28.0,8.0,30.07,WSW,240,6.0,19.0,43,-99.99,,,-99.99,,2013-01-15 21:52:00,
2013-01-15 17:03:00,27.0,8.0,30.07,SW,230,9.0,16.0,43,-99.99,,,-99.99,,2013-01-15 22:03:00,
2013-01-15 17:12:00,27.0,8.0,30.07,SW,230,9.0,16.0,43,-99.99,,,-99.99,,2013-01-15 22:12:00,
2013-01-15 17:23:00,28.0,8.0,30.07,SW,220,4.0,14.0,43,-99.99,,,-99.99,,2013-01-15 22:23:00,
2013-01-15 17:33:00,27.0,9.0,30.07,SSW,200,4.0,12.0,45,-99.99,,,-99.99,,2013-01-15 22:33:00,
2013-01-15 17:43:00,27.0,9.0,30.07,SSW,200,4.0,12.0,45,-99.99,,,-99.99,,2013-01-15 22:43:00,
2013-01-15 17:52:00,27.0,9.0,30.07,South,175,2.0,9.0,46,-99.99,,,-99.99,,2013-01-15 22:52:00,
2013-01-15 18:02:00,26.0,9.0,30.06,SSW,195,3.0,8.0,49,-99.99,,,-99.99,,2013-01-15 23:02:00,
2013-01-15 18:13:00,26.0,9.0,30.06,SSW,195,3.0,8.0,49,-99.99,,,-99.99,,2013-01-15 23:13:00,
2013-01-15 18:22:00,25.0,9.0,30.06,South,185,4.0,9.0,51,-99.99,,,-99.99,,2013-01-15 23:22:00,
2013-01-15 18:33:00,25.0,10.0,30.06,South,190,5.0,9.0,52,-99.99,,,-99.99,,2013-01-15 23:33:00,
2013-01-15 18:43:00,25.0,10.0,30.06,South,190,5.0,9.0,52,-99.99,,,-99.99,,2013-01-15 23:43:00,
2013-01-15 18:53:00,24.0,9.0,30.04,South,190,4.0,9.0,53,-99.99,,,-99.99,,2013-01-15 23:53:00,
2013-01-15 19:02:00,24.0,10.0,30.04,SSW,205,4.0,9.0,54,-99.99,,,-99.99,,2013-01-16 00:02:00,
2013-01-15 19:12:00,24.0,10.0,30.04,SSW,205,4.0,9.0,54,-99.99,,,-99.99,,2013-01-16 00:12:00,
2013-01-15 19:22:00,24.0,10.0,30.03,SSE,165,4.0,11.0,55,-99.99,,,-99.99,,2013-01-16 00:22:00,
2013-01-15 19:33:00,23.0,10.0,30.02,South,185,6.0,14.0,57,-99.99,,,-99.99,,2013-01-16 00:33:00,
2013-01-15 19:43:00,23.0,10.0,30.02,South,185,6.0,14.0,57,-99.99,,,-99.99,,2013-01-16 00:43:00,
2013-01-15 19:52:00,24.0,11.0,30.01,SSW,195,4.0,16.0,57,-99.99,,,-99.99,,2013-01-16 00:52:00,
2013-01-15 20:03:00,24.0,11.0,30.00,South,175,7.0,14.0,57,-99.99,,,-99.99,,2013-01-16 01:03:00,
2013-01-15 20:12:00,24.0,11.0,30.00,South,175,7.0,14.0,57,-99.99,,,-99.99,,2013-01-16 01:12:00,
2013-01-15 20:22:00,23.0,11.0,30.00,South,180,6.0,17.0,58,-99.99,,,-99.99,,2013-01-16 01:22:00,
2013-01-15 20:33:00,23.0,11.0,30.00,South,170,7.0,14.0,59,-99.99,,,-99.99,,2013-01-16 01:33:00,
2013-01-15 20:42:00,23.0,11.0,30.00,South,170,7.0,14.0,59,-99.99,,,-99.99,,2013-01-16 01:42:00,
2013-01-15 20:52:00,23.0,11.0,30.00,SSW,205,10.0,19.0,59,-99.99,,,-99.99,,2013-01-16 01:52:00,
2013-01-15 21:03:00,24.0,11.0,30.00,South,190,9.0,18.0,59,-99.99,,,-99.99,,2013-01-16 02:03:00,
2013-01-15 21:12:00,24.0,11.0,30.00,South,190,9.0,18.0,59,-99.99,,,-99.99,,2013-01-16 02:12:00,
2013-01-15 21:22:00,24.0,11.0,29.99,SSW,200,9.0,19.0,59,-99.99,,,-99.99,,2013-01-16 02:22:00,
2013-01-15 21:32:00,24.0,11.0,29.98,SW,215,9.0,20.0,59,-99.99,,,-99.99,,2013-01-16 02:32:00,
2013-01-15 21:42:00,24.0,11.0,29.98,SW,215,9.0,20.0,59,-99.99,,,-99.99,,2013-01-16 02:42:00,
2013-01-15 21:52:00,23.0,12.0,29.97,SSW,200,8.0,19.0,60,-99.99,,,-99.99,,2013-01-16 02:52:00,
2013-01-15 22:03:00,23.0,12.0,29.97,South,190,8.0,18.0,61,-99.99,,,-99.99,,2013-01-16 03:03:00,
2013-01-15 22:12:00,23.0,12.0,29.97,South,190,8.0,18.0,61,-99.99,,,-99.99,,2013-01-16 03:12:00,
2013-01-15 22:22:00,23.0,12.0,29.96,SSW,200,6.0,16.0,62,-99.99,,,-99.99,,2013-01-16 03:22:00,
2013-01-15 22:33:00,23.0,12.0,29.96,SW,215,8.0,13.0,62,-99.99,,,-99.99,,2013-01-16 03:33:00,
2013-01-15 22:43:00,23.0,12.0,29.96,SW,215,8.0,13.0,62,-99.99,,,-99.99,,2013-01-16 03:43:00,
2013-01-15 22:52:00,22.0,12.0,29.94,SW,215,7.0,15.0,63,-99.99,,,-99.99,,2013-01-16 03:52:00,
2013-01-15 23:02:00,22.0,12.0,29.94,SW,215,7.0,15.0,63,-99.99,,,-99.99,,2013-01-16 04:02:00,
2013-01-15 23:12:00,22.0,12.0,29.94,SW,215,7.0,15.0,63,-99.99,,,-99.99,,2013-01-16 04:12:00,
2013-01-15 23:22:00,22.0,12.0,29.93,SSW,200,9.0,20.0,63,-99.99,,,-99.99,,2013-01-16 04:22:00,
2013-01-15 23:32:00,22.0,12.0,29.92,SSW,210,9.0,21.0,63,-99.99,,,-99.99,,2013-01-16 04:32:00,
2013-01-15 23:42:00,22.0,12.0,29.92,SSW,210,9.0,21.0,63,-99.99,,,-99.99,,2013-01-16 04:42:00,
2013-01-15 23:52:00,22.0,12.0,29.92,South,190,6.0,16.0,63,-99.99,,,-99.99,,2013-01-16 04:52:00,